Time;durP1;ratioP1;P1;durP2;ratioP2;P2;SDS_P1;SDS_P2;PMS_P1;PMS_P2;Temp;Humidity;BMP_temperature;BMP_pressure;BME280_temperature;BME280_humidity;BME280_pressure;Samples;Min_cycle;Max_cycle;Signal;HPM_P1;HPM_P2
2023/05/27 00:02:57;;;;;;;1.75;1.40;;;;;;;19.12;54.35;97740.91;10428453;28;20046;-45
2023/05/27 00:08:17;;;;;;;1.40;1.30;;;;;;;19.11;54.28;97739.31;10391691;28;20050;-47
2023/05/27 00:13:37;;;;;;;1.20;1.10;;;;;;;19.12;54.38;97734.69;10411205;28;20037;-48
2023/05/27 00:18:57;;;;;;;1.40;1.30;;;;;;;19.13;54.27;97741.69;10410135;28;20049;-47
2023/05/27 00:24:17;;;;;;;1.48;1.17;;;;;;;19.12;54.24;97732.78;10418785;28;20049;-47
2023/05/27 00:29:36;;;;;;;2.10;1.15;;;;;;;19.11;54.29;97730.38;10391551;28;20053;-46
2023/05/27 00:34:56;;;;;;;1.38;1.10;;;;;;;19.12;54.32;97740.09;10413821;28;20053;-46
2023/05/27 00:40:20;;;;;;;1.25;1.13;;;;;;;19.10;54.37;97736.91;10413816;28;20033;-50
2023/05/27 00:45:39;;;;;;;1.30;1.20;;;;;;;19.11;54.32;97730.38;10382587;28;20052;-48
2023/05/27 00:50:59;;;;;;;1.30;1.10;;;;;;;19.09;54.29;97736.09;10389214;28;20083;-50
2023/05/27 00:56:20;;;;;;;1.60;1.20;;;;;;;19.09;54.22;97733.41;10394659;28;20038;-47
2023/05/27 01:01:43;;;;;;;1.30;1.20;;;;;;;19.09;54.36;97735.28;10392514;28;20066;-58
2023/05/27 01:07:10;;;;;;;1.38;1.27;;;;;;;19.09;54.18;97728.00;10390735;28;20045;-58
2023/05/27 01:12:39;;;;;;;1.48;1.38;;;;;;;19.09;54.28;97719.06;10396153;28;20042;-58
2023/05/27 01:18:01;;;;;;;1.25;1.15;;;;;;;19.09;54.16;97719.06;10406517;28;20088;-58
2023/05/27 01:23:21;;;;;;;1.13;1.10;;;;;;;19.07;54.18;97716.69;10431352;28;20045;-58
2023/05/27 01:28:41;;;;;;;1.55;1.15;;;;;;;19.08;54.24;97726.38;10393689;28;20057;-58
2023/05/27 01:34:07;;;;;;;1.42;1.20;;;;;;;19.07;54.16;97716.69;10396368;28;20513;-58
2023/05/27 01:39:27;;;;;;;1.48;1.20;;;;;;;19.07;54.18;97726.69;10383169;28;20050;-58
2023/05/27 01:44:47;;;;;;;1.13;1.02;;;;;;;19.07;54.24;97723.97;10404408;28;20042;-58
2023/05/27 01:50:07;;;;;;;1.13;1.08;;;;;;;19.06;54.20;97720.47;10387996;28;20058;-58
2023/05/27 01:55:27;;;;;;;1.45;1.10;;;;;;;19.07;54.26;97722.09;10396181;28;20079;-58
2023/05/27 02:00:47;;;;;;;1.30;1.15;;;;;;;19.06;54.18;97717.00;10386330;28;20054;-58
2023/05/27 02:06:07;;;;;;;1.77;1.05;;;;;;;19.05;54.15;97716.19;10397759;28;20050;-58
2023/05/27 02:11:27;;;;;;;1.52;1.10;;;;;;;19.05;54.04;97724.31;10390550;28;20490;-58
2023/05/27 02:16:49;;;;;;;1.30;1.20;;;;;;;19.06;54.18;97723.19;10381589;28;20068;-58
2023/05/27 02:22:09;;;;;;;1.20;1.10;;;;;;;19.06;54.15;97725.09;10383533;28;20064;-58
2023/05/27 02:27:29;;;;;;;1.10;1.10;;;;;;;19.05;54.18;97718.06;10396224;28;20048;-58
2023/05/27 02:32:50;;;;;;;1.25;1.15;;;;;;;19.05;54.08;97716.19;10378156;28;20049;-58
2023/05/27 02:38:10;;;;;;;1.40;1.20;;;;;;;19.03;54.10;97718.38;10405137;28;20046;-58
2023/05/27 02:43:30;;;;;;;1.20;1.10;;;;;;;19.03;54.10;97712.97;10392477;28;20042;-58
2023/05/27 02:48:50;;;;;;;1.30;1.20;;;;;;;19.03;54.01;97715.66;10420212;28;20041;-58
2023/05/27 02:54:09;;;;;;;1.20;1.10;;;;;;;19.01;54.16;97719.78;10403777;28;20037;-58
2023/05/27 02:59:29;;;;;;;1.30;1.20;;;;;;;19.02;54.02;97724.09;10392877;28;20398;-58
2023/05/27 03:04:48;;;;;;;1.77;1.20;;;;;;;19.01;54.11;97725.97;10395503;28;20510;-58
2023/05/27 03:10:09;;;;;;;0.90;0.90;;;;;;;19.01;54.04;97728.66;10411076;28;20100;-58
2023/05/27 03:15:29;;;;;;;1.00;1.00;;;;;;;19.01;54.10;97717.06;10416141;28;20042;-58
2023/05/27 03:20:50;;;;;;;1.13;1.02;;;;;;;19.01;54.02;97720.56;10406669;28;20037;-58
2023/05/27 03:26:11;;;;;;;1.30;1.00;;;;;;;19.01;53.98;97717.88;10391152;28;20490;-58
2023/05/27 03:31:31;;;;;;;0.95;0.93;;;;;;;19.00;53.98;97727.09;10406565;28;20490;-58
2023/05/27 03:36:56;;;;;;;1.20;1.10;;;;;;;19.00;54.02;97729.78;10401865;28;20069;-58
2023/05/27 03:42:28;;;;;;;1.35;1.05;;;;;;;18.99;54.14;97727.38;10391115;28;20053;-58
2023/05/27 03:47:48;;;;;;;1.10;1.00;;;;;;;19.00;54.08;97743.28;10377848;28;20050;-58
2023/05/27 03:53:09;;;;;;;1.40;1.00;;;;;;;18.99;54.04;97732.78;10387631;28;20066;-58
2023/05/27 03:58:28;;;;;;;1.20;1.10;;;;;;;18.98;54.06;97731.97;10387523;28;20042;-58
2023/05/27 04:03:48;;;;;;;1.00;0.95;;;;;;;18.99;54.05;97738.97;10400427;28;20033;-58
2023/05/27 04:09:08;;;;;;;1.10;1.00;;;;;;;19.00;53.90;97743.28;10404332;28;20042;-58
2023/05/27 04:14:28;;;;;;;0.90;0.90;;;;;;;19.02;53.85;97751.09;10376374;28;20073;-58
2023/05/27 04:19:48;;;;;;;1.00;1.00;;;;;;;19.02;53.98;97756.50;10416648;28;20037;-58
2023/05/27 04:25:09;;;;;;;1.00;0.90;;;;;;;19.04;53.98;97763.19;10390240;28;20060;-58
2023/05/27 04:30:40;;;;;;;1.20;1.10;;;;;;;19.03;53.86;97758.88;10388414;28;20548;-58
2023/05/27 04:36:06;;;;;;;1.35;1.20;;;;;;;19.03;53.82;97766.97;10388532;28;20052;-58
2023/05/27 04:41:35;;;;;;;0.90;0.90;;;;;;;19.01;54.05;97755.66;10387814;28;20038;-58
2023/05/27 04:47:17;;;;;;;1.20;1.02;;;;;;;18.99;53.86;97757.88;10385964;28;20486;-58
2023/05/27 04:52:41;;;;;;;1.17;1.08;;;;;;;19.01;54.02;97757.56;10385042;28;20414;-58
2023/05/27 04:58:05;;;;;;;1.38;1.27;;;;;;;19.00;53.75;97753.28;10387599;28;20038;-58
2023/05/27 05:03:36;;;;;;;1.02;1.00;;;;;;;18.99;53.96;97757.88;10402831;28;20136;-58
2023/05/27 05:08:57;;;;;;;1.27;1.10;;;;;;;18.99;53.96;97760.56;10371620;28;20490;-58
2023/05/27 05:14:16;;;;;;;1.13;1.02;;;;;;;18.99;54.03;97762.47;10398938;28;20061;-58
2023/05/27 05:19:36;;;;;;;1.55;1.10;;;;;;;18.99;54.07;97765.19;10387289;28;20037;-58
2023/05/27 05:24:56;;;;;;;1.20;1.10;;;;;;;18.98;53.93;97771.69;10385297;28;20046;-58
2023/05/27 05:30:26;;;;;;;1.15;1.05;;;;;;;18.98;54.10;97753.59;10395678;28;20049;-58
2023/05/27 05:35:46;;;;;;;1.17;1.08;;;;;;;18.97;54.06;97757.38;10403334;28;20483;-58
2023/05/27 05:41:15;;;;;;;1.30;0.90;;;;;;;18.98;54.12;97760.88;10384069;28;20045;-58
2023/05/27 05:46:36;;;;;;;1.65;1.10;;;;;;;18.97;54.02;97754.66;10392630;28;20061;-58
2023/05/27 05:51:56;;;;;;;1.05;0.98;;;;;;;18.98;54.11;97760.88;10375207;28;20076;-58
2023/05/27 05:57:16;;;;;;;1.20;1.10;;;;;;;18.97;54.08;97762.75;10394548;28;20044;-58
2023/05/27 06:02:36;;;;;;;1.02;0.93;;;;;;;18.98;54.20;97772.47;10406864;28;20478;-58
2023/05/27 06:07:56;;;;;;;1.30;1.20;;;;;;;18.98;54.14;97780.59;10381014;28;20126;-58
2023/05/27 06:13:17;;;;;;;1.10;1.00;;;;;;;18.98;54.20;97783.28;10391592;28;20046;-58
2023/05/27 06:18:37;;;;;;;1.00;1.00;;;;;;;18.98;54.21;97796.00;10390582;28;20049;-58
2023/05/27 06:23:58;;;;;;;1.20;1.10;;;;;;;18.98;54.18;97787.91;10391370;28;20046;-58
2023/05/27 06:29:19;;;;;;;0.80;0.80;;;;;;;18.99;54.23;97789.47;10397556;28;20417;-58
2023/05/27 06:34:39;;;;;;;1.38;1.00;;;;;;;18.97;54.25;97797.88;10393250;28;20034;-58
2023/05/27 06:40:01;;;;;;;1.25;1.00;;;;;;;18.98;54.26;97793.28;10424312;28;20045;-58
2023/05/27 06:45:21;;;;;;;1.40;1.10;;;;;;;18.96;54.20;97791.69;10394499;28;20092;-58
2023/05/27 06:50:46;;;;;;;0.85;0.85;;;;;;;18.98;54.31;97777.09;10383755;28;20053;-58
2023/05/27 06:56:06;;;;;;;1.52;1.20;;;;;;;18.97;54.41;97784.38;10397779;28;20387;-58
2023/05/27 07:01:44;;;;;;;0.95;0.90;;;;;;;18.98;54.37;97782.50;10415230;28;20045;-58
2023/05/27 07:07:07;;;;;;;1.05;0.80;;;;;;;18.97;54.27;97792.47;10391201;28;20037;-58
2023/05/27 07:12:27;;;;;;;1.38;0.98;;;;;;;18.97;54.50;97773.56;10391413;28;20498;-58
2023/05/27 07:17:50;;;;;;;1.00;0.93;;;;;;;18.98;54.49;97771.69;10395552;28;20037;-58
2023/05/27 07:23:10;;;;;;;1.05;0.90;;;;;;;18.97;54.36;97773.56;10389372;28;20042;-58
2023/05/27 07:28:32;;;;;;;1.00;0.90;;;;;;;18.97;54.49;97770.88;10396779;28;20670;-58
2023/05/27 07:34:03;;;;;;;1.27;0.98;;;;;;;18.96;54.62;97775.47;10387664;28;20501;-58
2023/05/27 07:39:23;;;;;;;1.00;0.90;;;;;;;18.96;54.64;97782.78;10389039;28;20042;-58
2023/05/27 07:44:42;;;;;;;0.88;0.88;;;;;;;18.98;54.61;97785.19;10420060;28;20490;-58
2023/05/27 07:50:03;;;;;;;1.25;0.90;;;;;;;18.96;54.50;97775.47;10387509;28;20062;-58
2023/05/27 07:55:47;;;;;;;1.02;0.90;;;;;;;18.95;54.63;97768.50;10409251;28;20041;-58
2023/05/27 08:01:07;;;;;;;0.98;0.90;;;;;;;18.96;54.58;97763.88;10388792;28;20034;-58
2023/05/27 08:06:26;;;;;;;0.98;0.80;;;;;;;18.96;54.63;97767.38;10407327;28;20052;-58
2023/05/27 08:12:15;;;;;;;;;;;;;;;18.97;54.71;97770.88;10373079;28;20490;-58
2023/05/27 08:18:01;;;;;;;1.00;0.85;;;;;;;18.97;54.73;97760.06;10376793;28;19921;-58
2023/05/27 08:23:41;;;;;;;1.25;1.08;;;;;;;18.96;54.77;97750.38;10402196;28;20387;-58
2023/05/27 08:29:30;;;;;;;;;;;;;;;18.95;54.71;97746.88;10377335;28;20490;-58
2023/05/27 08:35:14;;;;;;;0.73;0.73;;;;;;;18.96;54.67;97751.16;10374133;28;20401;-58
2023/05/27 08:40:34;;;;;;;1.05;0.95;;;;;;;18.96;54.70;97740.38;10389239;28;20042;-58
2023/05/27 08:45:54;;;;;;;1.63;1.20;;;;;;;18.95;54.74;97733.38;10391182;28;20461;-58
2023/05/27 08:51:18;;;;;;;1.40;0.93;;;;;;;18.95;54.89;97730.69;10386854;28;20045;-58
2023/05/27 08:56:39;;;;;;;1.30;1.05;;;;;;;18.96;54.86;97729.56;10393135;28;20053;-58
2023/05/27 09:02:00;;;;;;;1.00;0.90;;;;;;;18.96;54.76;97726.88;10397234;28;20045;-58
2023/05/27 09:07:20;;;;;;;1.08;0.80;;;;;;;18.96;54.74;97729.56;10398228;28;20045;-58
2023/05/27 09:12:44;;;;;;;0.70;0.70;;;;;;;18.96;54.98;97726.88;10388843;28;20061;-58
2023/05/27 09:18:04;;;;;;;0.90;0.90;;;;;;;18.97;54.87;97724.97;10395252;28;20049;-58
2023/05/27 09:23:25;;;;;;;1.52;1.10;;;;;;;18.96;54.86;97721.47;10403006;28;20046;-58
2023/05/27 09:28:45;;;;;;;0.98;0.90;;;;;;;18.96;54.72;97720.69;10399609;28;20045;-58
2023/05/27 09:34:15;;;;;;;1.30;0.85;;;;;;;18.96;54.89;97710.66;10396371;28;20049;-58
2023/05/27 09:39:35;;;;;;;0.82;0.82;;;;;;;18.96;54.88;97709.88;10393350;28;20092;-58
2023/05/27 09:44:55;;;;;;;0.80;0.73;;;;;;;18.96;54.92;97710.66;10401980;28;20415;-58
2023/05/27 09:50:15;;;;;;;1.40;0.80;;;;;;;18.96;54.90;97704.47;10387445;28;20065;-58
2023/05/27 09:55:35;;;;;;;0.80;0.80;;;;;;;18.96;54.84;97699.88;10382611;28;20058;-58
2023/05/27 10:00:55;;;;;;;0.80;0.80;;;;;;;18.95;54.86;97703.69;10395222;28;20049;-58
2023/05/27 10:06:15;;;;;;;1.05;0.95;;;;;;;18.96;54.87;97688.28;10403142;28;20049;-58
2023/05/27 10:11:38;;;;;;;1.05;0.80;;;;;;;18.97;54.92;97692.56;10403089;28;20049;-58
2023/05/27 10:16:58;;;;;;;1.23;0.80;;;;;;;18.95;54.90;97679.38;10411426;28;20042;-58
2023/05/27 10:22:20;;;;;;;0.80;0.80;;;;;;;18.95;54.92;97687.47;10400838;28;20041;-58
2023/05/27 10:27:47;;;;;;;1.95;0.93;;;;;;;18.96;54.95;97670.16;10398588;28;20395;-58
2023/05/27 10:33:06;;;;;;;0.70;0.70;;;;;;;18.96;54.97;97669.38;10391231;28;20045;-58
2023/05/27 10:38:26;;;;;;;0.80;0.80;;;;;;;18.95;55.01;97665.06;10405032;28;20049;-58
2023/05/27 10:43:55;;;;;;;0.80;0.80;;;;;;;18.95;54.93;97656.97;10393547;28;20045;-58
2023/05/27 10:49:22;;;;;;;0.93;0.90;;;;;;;18.97;54.98;97662.84;10392103;28;20119;-58
2023/05/27 10:54:45;;;;;;;0.80;0.80;;;;;;;18.96;55.01;97661.28;10393632;28;20046;-58
2023/05/27 11:00:08;;;;;;;0.77;0.77;;;;;;;18.96;55.12;97650.47;10392709;28;20049;-58
2023/05/27 11:05:31;;;;;;;0.90;0.82;;;;;;;18.96;54.92;97645.06;10395722;28;20371;-58
2023/05/27 11:10:57;;;;;;;0.80;0.70;;;;;;;18.95;55.13;97638.88;10389609;28;20042;-58
2023/05/27 11:16:17;;;;;;;0.85;0.73;;;;;;;18.95;55.15;97632.66;10389722;28;20038;-58
2023/05/27 11:21:44;;;;;;;1.33;0.73;;;;;;;18.95;55.02;97635.34;10413227;28;20038;-58
2023/05/27 11:27:11;;;;;;;0.80;0.80;;;;;;;18.95;55.12;97635.34;10392191;28;20111;-58
2023/05/27 11:32:33;;;;;;;0.80;0.70;;;;;;;18.95;55.12;97627.25;10392217;28;20038;-58
2023/05/27 11:37:53;;;;;;;0.98;0.80;;;;;;;18.96;55.12;97615.38;10387842;28;20049;-58
2023/05/27 11:43:18;;;;;;;1.08;0.80;;;;;;;18.96;55.17;97607.28;10388626;28;20053;-58
2023/05/27 11:48:37;;;;;;;0.88;0.70;;;;;;;18.94;55.13;97607.56;10388470;28;20050;-58
2023/05/27 11:53:58;;;;;;;0.90;0.75;;;;;;;18.94;55.18;97604.88;10393980;28;20490;-58
2023/05/27 11:59:19;;;;;;;0.60;0.60;;;;;;;18.95;55.18;97603.78;10387978;28;20038;-58
2023/05/27 12:04:38;;;;;;;0.82;0.80;;;;;;;18.95;55.11;97601.06;10383147;28;20050;-58
2023/05/27 12:09:58;;;;;;;0.77;0.77;;;;;;;18.95;55.28;97594.84;10393978;28;20103;-58
2023/05/27 12:15:17;;;;;;;0.77;0.70;;;;;;;18.96;55.20;97601.88;10389415;28;20402;-58
2023/05/27 12:20:37;;;;;;;0.50;0.50;;;;;;;18.95;55.29;97600.25;10398179;28;20048;-58
2023/05/27 12:25:56;;;;;;;0.60;0.60;;;;;;;18.95;55.30;97595.69;10387993;28;20045;-58
2023/05/27 12:31:16;;;;;;;1.00;0.80;;;;;;;18.95;55.30;97584.88;10400891;28;20045;-58
2023/05/27 12:36:36;;;;;;;1.08;0.90;;;;;;;18.95;55.38;97579.47;10392403;28;20130;-58
2023/05/27 12:41:55;;;;;;;0.60;0.60;;;;;;;18.96;55.42;97582.97;10373632;28;20120;-58
2023/05/27 12:47:15;;;;;;;1.25;0.80;;;;;;;18.96;55.42;97566.75;10391167;28;20046;-58
2023/05/27 12:52:35;;;;;;;0.60;0.60;;;;;;;18.96;55.37;97574.88;10375397;28;20057;-58
2023/05/27 12:57:55;;;;;;;0.80;0.80;;;;;;;18.95;55.45;97562.44;10378861;28;20049;-58
2023/05/27 13:03:16;;;;;;;0.80;0.80;;;;;;;18.96;55.57;97547.88;10391549;28;20045;-58
2023/05/27 13:08:35;;;;;;;1.02;0.70;;;;;;;18.96;55.55;97543.25;10405065;28;20041;-58
2023/05/27 13:13:55;;;;;;;0.70;0.70;;;;;;;18.96;55.45;97540.56;10391633;28;20053;-58
2023/05/27 13:19:14;;;;;;;0.60;0.60;;;;;;;18.95;55.58;97536.28;10388378;28;20413;-58
2023/05/27 13:24:34;;;;;;;0.80;0.70;;;;;;;18.96;55.64;97537.84;10404873;28;20410;-58
2023/05/27 13:29:54;;;;;;;0.75;0.75;;;;;;;18.97;55.70;97530.53;10385402;28;20054;-58
2023/05/27 13:35:14;;;;;;;0.73;0.73;;;;;;;18.97;55.83;97525.16;10404665;28;20076;-58
2023/05/27 13:40:33;;;;;;;0.70;0.70;;;;;;;18.95;55.80;97517.38;10411730;28;20045;-58
2023/05/27 13:45:53;;;;;;;0.70;0.70;;;;;;;18.97;55.82;97527.84;10396584;28;20041;-58
2023/05/27 13:51:12;;;;;;;0.40;0.40;;;;;;;18.97;55.87;97519.75;10378212;28;20050;-58
2023/05/27 13:56:33;;;;;;;0.50;0.50;;;;;;;18.98;56.03;97509.78;10390580;28;20049;-58
2023/05/27 14:01:54;;;;;;;0.40;0.40;;;;;;;18.98;56.10;97513.25;10390205;28;20045;-58
2023/05/27 14:07:13;;;;;;;0.60;0.60;;;;;;;18.98;56.17;97518.66;10401377;28;20053;-58
2023/05/27 14:12:33;;;;;;;0.70;0.70;;;;;;;19.01;56.14;97511.84;10398527;28;20433;-58
2023/05/27 14:17:52;;;;;;;0.55;0.55;;;;;;;19.02;56.15;97499.97;10398868;28;20037;-58
2023/05/27 14:23:13;;;;;;;0.68;0.60;;;;;;;19.01;56.32;97492.94;10406088;28;20046;-58
2023/05/27 14:28:33;;;;;;;0.80;0.80;;;;;;;19.01;56.26;97493.72;10397599;28;20120;-58
2023/05/27 14:33:52;;;;;;;0.60;0.60;;;;;;;19.01;56.38;97491.03;10397448;28;20060;-58
2023/05/27 14:39:11;;;;;;;0.57;0.57;;;;;;;19.01;56.41;97485.63;10383795;28;20073;-58
2023/05/27 14:44:33;;;;;;;0.70;0.70;;;;;;;19.02;56.54;97483.75;10393826;28;20038;-58
2023/05/27 14:49:53;;;;;;;0.60;0.60;;;;;;;19.02;56.50;97481.84;10387541;28;20104;-58
2023/05/27 14:55:12;;;;;;;0.50;0.50;;;;;;;19.02;56.55;97475.66;10404631;28;20411;-58
2023/05/27 15:00:32;;;;;;;0.60;0.60;;;;;;;19.03;56.63;97469.13;10392830;28;20050;-58
2023/05/27 15:05:54;;;;;;;0.40;0.40;;;;;;;19.03;56.62;97466.44;10398659;28;20042;-58
2023/05/27 15:11:14;;;;;;;0.60;0.60;;;;;;;19.04;56.57;97462.66;10393014;28;20041;-58
2023/05/27 15:16:33;;;;;;;0.52;0.52;;;;;;;19.04;56.72;97460.75;10401019;28;20058;-58
2023/05/27 15:21:53;;;;;;;0.60;0.60;;;;;;;19.04;56.70;97452.63;10400875;28;20048;-58
2023/05/27 15:27:12;;;;;;;0.50;0.50;;;;;;;19.05;56.59;97453.44;10388754;28;20494;-58
2023/05/27 15:32:32;;;;;;;0.52;0.50;;;;;;;19.05;56.67;97456.94;10403201;28;20037;-58
2023/05/27 15:37:52;;;;;;;0.50;0.50;;;;;;;19.06;56.73;97444.22;10391634;28;20038;-58
2023/05/27 15:43:12;;;;;;;0.52;0.50;;;;;;;19.06;56.68;97453.13;10396992;28;20049;-58
2023/05/27 15:48:32;;;;;;;0.60;0.60;;;;;;;19.07;56.68;97443.94;10421260;28;20050;-58
2023/05/27 15:53:52;;;;;;;0.63;0.60;;;;;;;19.06;56.80;97434.22;10396382;28;20034;-58
2023/05/27 15:59:11;;;;;;;0.50;0.50;;;;;;;19.06;56.71;97426.13;10399048;28;20778;-58
2023/05/27 16:04:31;;;;;;;0.50;0.50;;;;;;;19.06;56.79;97423.41;10399334;28;20096;-58
2023/05/27 16:09:51;;;;;;;0.43;0.43;;;;;;;19.06;56.67;97420.72;10387441;28;20048;-58
2023/05/27 16:15:11;;;;;;;0.40;0.40;;;;;;;19.07;56.63;97410.72;10390292;28;20038;-58
2023/05/27 16:20:30;;;;;;;0.65;0.65;;;;;;;19.07;56.70;97406.13;10392629;28;20049;-58
2023/05/27 16:25:52;;;;;;;0.70;0.63;;;;;;;19.08;56.71;97406.91;10404386;28;20045;-58
2023/05/27 16:31:12;;;;;;;0.80;0.80;;;;;;;19.08;56.68;97404.22;10420014;28;20371;-58
2023/05/27 16:36:31;;;;;;;0.40;0.40;;;;;;;19.08;56.75;97399.59;10397787;28;20049;-58
2023/05/27 16:41:51;;;;;;;0.30;0.30;;;;;;;19.08;56.75;97393.41;10389498;28;20045;-58
2023/05/27 16:47:11;;;;;;;0.47;0.47;;;;;;;19.09;56.72;97395.81;10413565;28;20049;-58
2023/05/27 16:52:30;;;;;;;0.43;0.40;;;;;;;19.09;56.81;97389.59;10411315;28;20183;-58
2023/05/27 16:57:50;;;;;;;0.50;0.50;;;;;;;19.09;56.84;97385.00;10388661;28;20505;-58
2023/05/27 17:03:09;;;;;;;0.50;0.50;;;;;;;19.09;56.68;97379.63;10399652;28;20041;-58
2023/05/27 17:08:28;;;;;;;0.50;0.50;;;;;;;19.09;56.81;97382.31;10385814;28;20129;-58
2023/05/27 17:13:48;;;;;;;0.50;0.50;;;;;;;19.08;56.78;97378.00;10387966;28;20085;-58
2023/05/27 17:19:11;;;;;;;0.57;0.57;;;;;;;19.09;56.78;97373.41;10388525;28;20096;-58
2023/05/27 17:24:30;;;;;;;0.50;0.50;;;;;;;19.08;56.88;97383.41;10385470;28;20075;-58
2023/05/27 17:29:49;;;;;;;0.60;0.50;;;;;;;19.09;56.83;97381.50;10388517;28;20052;-58
2023/05/27 17:35:09;;;;;;;0.40;0.40;;;;;;;19.10;56.70;97375.00;10388280;28;20053;-58
2023/05/27 17:40:29;;;;;;;0.50;0.50;;;;;;;19.09;56.74;97379.63;10387332;28;20038;-58
2023/05/27 17:45:49;;;;;;;0.60;0.60;;;;;;;19.09;56.65;97374.22;10388191;28;20111;-58
2023/05/27 17:51:08;;;;;;;0.60;0.60;;;;;;;19.08;56.56;97361.00;10386690;28;20085;-58
2023/05/27 17:56:28;;;;;;;0.52;0.52;;;;;;;19.08;56.56;97363.72;10395880;28;20096;-58
2023/05/27 18:01:48;;;;;;;0.50;0.50;;;;;;;19.08;56.62;97363.72;10401035;28;20052;-58
2023/05/27 18:07:07;;;;;;;0.50;0.50;;;;;;;19.08;56.49;97361.00;10392378;28;20073;-58
2023/05/27 18:12:27;;;;;;;0.60;0.60;;;;;;;19.08;56.41;97359.09;10400594;28;20553;-58
2023/05/27 18:17:46;;;;;;;0.80;0.80;;;;;;;19.06;56.44;97364.00;10392041;28;20042;-58
2023/05/27 18:23:06;;;;;;;0.60;0.60;;;;;;;19.07;56.42;97354.81;10391675;28;20034;-58
2023/05/27 18:28:25;;;;;;;0.70;0.70;;;;;;;19.06;56.52;97358.59;10393437;28;20091;-58
2023/05/27 18:33:45;;;;;;;0.60;0.60;;;;;;;19.07;56.36;97354.81;10398050;28;20046;-58
2023/05/27 18:39:04;;;;;;;0.50;0.50;;;;;;;19.07;56.38;97349.41;10391294;28;20046;-58
2023/05/27 18:44:23;;;;;;;0.60;0.60;;;;;;;19.07;56.28;97360.22;10390982;28;20513;-58
2023/05/27 18:49:43;;;;;;;0.75;0.70;;;;;;;19.07;56.33;97364.81;10388361;28;20506;-58
2023/05/27 18:55:02;;;;;;;0.57;0.57;;;;;;;19.06;56.30;97365.94;10377622;28;20058;-58
2023/05/27 19:00:22;;;;;;;0.80;0.80;;;;;;;19.07;56.31;97364.81;10412234;28;20049;-58
2023/05/27 19:05:43;;;;;;;0.65;0.65;;;;;;;19.07;56.22;97359.41;10402269;28;20042;-58
2023/05/27 19:11:03;;;;;;;0.52;0.52;;;;;;;19.06;56.13;97366.72;10390040;28;20053;-58
2023/05/27 19:16:22;;;;;;;0.95;0.60;;;;;;;19.06;56.17;97374.03;10389668;28;20045;-58
2023/05/27 19:21:41;;;;;;;0.82;0.57;;;;;;;19.05;56.11;97369.72;10395322;28;20041;-58
2023/05/27 19:27:01;;;;;;;0.60;0.60;;;;;;;19.05;56.13;97367.84;10392249;28;20046;-58
2023/05/27 19:32:21;;;;;;;0.60;0.60;;;;;;;19.04;56.01;97368.94;10392100;28;20049;-58
2023/05/27 19:37:40;;;;;;;1.02;0.93;;;;;;;19.06;55.94;97380.22;10400276;28;20041;-58
2023/05/27 19:43:00;;;;;;;1.73;0.70;;;;;;;19.05;55.88;97373.22;10386599;28;20046;-58
2023/05/27 19:48:19;;;;;;;0.73;0.63;;;;;;;19.05;56.05;97365.13;10404979;28;20052;-58
2023/05/27 19:53:43;;;;;;;0.65;0.65;;;;;;;19.05;55.98;97380.50;10398881;28;20058;-58
2023/05/27 19:59:02;;;;;;;0.85;0.82;;;;;;;19.05;56.01;97375.13;10401104;28;20427;-58
2023/05/27 20:04:21;;;;;;;0.90;0.80;;;;;;;19.04;55.74;97368.94;10404651;28;20064;-58
2023/05/27 20:09:41;;;;;;;0.77;0.70;;;;;;;19.05;55.94;97373.22;10387746;28;20494;-58
2023/05/27 20:15:01;;;;;;;0.85;0.80;;;;;;;19.04;55.87;97373.53;10390035;28;20042;-58
2023/05/27 20:20:26;;;;;;;0.70;0.70;;;;;;;19.04;55.87;97368.94;10389943;28;20042;-58
2023/05/27 20:25:46;;;;;;;0.63;0.63;;;;;;;19.03;55.77;97363.81;10398394;28;20046;-58
2023/05/27 20:31:05;;;;;;;0.88;0.70;;;;;;;19.03;55.72;97371.91;10389826;28;20057;-58
2023/05/27 20:36:25;;;;;;;0.75;0.70;;;;;;;19.03;55.88;97375.41;10397881;28;20096;-58
2023/05/27 20:41:44;;;;;;;0.63;0.63;;;;;;;19.04;55.83;97379.72;10386544;28;20414;-58
2023/05/27 20:47:07;;;;;;;0.63;0.63;;;;;;;19.04;55.75;97385.13;10389405;28;20050;-58
2023/05/27 20:52:27;;;;;;;0.70;0.70;;;;;;;19.03;55.74;97386.22;10381077;28;20057;-58
2023/05/27 20:57:49;;;;;;;0.95;0.80;;;;;;;19.02;55.78;97389.25;10395503;28;20046;-58
2023/05/27 21:03:10;;;;;;;1.42;0.82;;;;;;;19.02;55.76;97384.63;10390873;28;20077;-58
2023/05/27 21:08:33;;;;;;;0.90;0.80;;;;;;;19.03;55.70;97385.44;10395997;28;20522;-58
2023/05/27 21:13:53;;;;;;;1.00;0.80;;;;;;;19.02;55.65;97375.75;10382428;28;20054;-58
2023/05/27 21:19:12;;;;;;;0.77;0.77;;;;;;;19.02;55.75;97373.84;10388223;28;20046;-58
2023/05/27 21:24:31;;;;;;;1.13;0.70;;;;;;;19.01;55.61;97374.91;10394006;28;20045;-58
2023/05/27 21:29:51;;;;;;;0.95;0.60;;;;;;;19.02;55.63;97381.94;10393701;28;20048;-58
2023/05/27 21:35:11;;;;;;;2.10;0.90;;;;;;;19.01;55.58;97374.13;10399623;28;20041;-58
2023/05/27 21:40:30;;;;;;;0.75;0.65;;;;;;;19.01;55.59;97374.91;10393280;28;20088;-58
2023/05/27 21:45:50;;;;;;;0.80;0.75;;;;;;;19.01;55.64;97368.72;10393216;28;20038;-58
2023/05/27 21:51:10;;;;;;;0.63;0.63;;;;;;;19.00;55.65;97369.84;10386334;28;20065;-58
2023/05/27 21:56:30;;;;;;;0.63;0.63;;;;;;;19.01;55.43;97368.72;10408367;28;20053;-58
2023/05/27 22:01:50;;;;;;;0.60;0.60;;;;;;;19.01;55.70;97366.81;10404342;28;20038;-58
2023/05/27 22:07:09;;;;;;;0.50;0.50;;;;;;;19.00;55.53;97365.25;10408584;28;20038;-58
2023/05/27 22:12:29;;;;;;;0.82;0.80;;;;;;;19.00;55.55;97359.84;10400896;28;20053;-58
2023/05/27 22:17:48;;;;;;;0.70;0.70;;;;;;;18.99;55.35;97352.84;10411328;28;20045;-58
2023/05/27 22:23:07;;;;;;;0.93;0.85;;;;;;;18.99;55.56;97350.13;10394774;28;20038;-58
2023/05/27 22:28:27;;;;;;;0.60;0.60;;;;;;;18.99;55.42;97339.34;10411104;28;20498;-58
2023/05/27 22:33:47;;;;;;;0.70;0.70;;;;;;;19.00;55.37;97340.16;10400157;28;20037;-58
2023/05/27 22:39:08;;;;;;;1.10;0.75;;;;;;;18.99;55.35;97333.94;10409321;28;20076;-58
2023/05/27 22:44:28;;;;;;;0.85;0.80;;;;;;;18.98;55.33;97326.94;10393918;28;20486;-58
2023/05/27 22:49:47;;;;;;;0.70;0.70;;;;;;;18.99;55.34;97317.72;10402142;28;20045;-58
2023/05/27 22:55:07;;;;;;;1.40;0.70;;;;;;;19.00;55.39;97316.63;10390575;28;20041;-58
2023/05/27 23:00:27;;;;;;;0.90;0.80;;;;;;;18.98;55.31;97316.16;10395416;28;20406;-58
2023/05/27 23:05:46;;;;;;;0.70;0.70;;;;;;;18.98;55.30;97297.25;10405407;28;20095;-58
2023/05/27 23:11:05;;;;;;;0.70;0.70;;;;;;;18.99;55.40;97315.03;10409767;28;20050;-58
2023/05/27 23:16:25;;;;;;;0.82;0.80;;;;;;;18.98;55.35;97302.66;10408059;28;20042;-58
2023/05/27 23:21:45;;;;;;;0.80;0.80;;;;;;;18.98;55.36;97299.94;10388834;28;20053;-58
2023/05/27 23:27:04;;;;;;;0.73;0.70;;;;;;;18.98;55.38;97296.47;10416817;28;20049;-58
2023/05/27 23:32:24;;;;;;;0.70;0.70;;;;;;;18.96;55.26;97289.44;10387523;28;20057;-58
2023/05/27 23:37:43;;;;;;;0.80;0.80;;;;;;;18.95;55.26;97285.19;10400238;28;20077;-58
2023/05/27 23:43:03;;;;;;;0.98;0.70;;;;;;;18.96;55.26;97280.56;10382754;28;20053;-58
2023/05/27 23:48:23;;;;;;;0.85;0.75;;;;;;;18.96;55.37;97275.16;10392930;28;20045;-58
2023/05/27 23:53:42;;;;;;;0.73;0.73;;;;;;;18.96;55.24;97273.25;10377895;28;20061;-58
2023/05/27 23:59:02;;;;;;;0.70;0.70;;;;;;;18.95;55.09;97262.75;10406291;28;20049;-58
